Time;durP1;ratioP1;P1;durP2;ratioP2;P2;SDS_P1;SDS_P2;PMS_P1;PMS_P2;Temp;Humidity;BMP_temperature;BMP_pressure;BME280_temperature;BME280_humidity;BME280_pressure;Samples;Min_cycle;Max_cycle;Signal;HPM_P1;HPM_P2
2024/04/06 00:02:13;;;;;;;2.38;1.30;;;14.50;53.20;;;10.39;87.93;95587.41;4961995;28;20025;-51
2024/04/06 00:04:41;;;;;;;1.50;1.17;;;14.50;53.30;;;10.40;88.06;95575.72;4956717;28;20458;-54
2024/04/06 00:07:08;;;;;;;1.38;1.00;;;14.50;53.40;;;10.35;86.79;95594.31;4962833;28;20485;-53
2024/04/06 00:09:35;;;;;;;1.95;1.17;;;14.50;53.40;;;10.30;86.84;95585.50;4973331;28;20289;-50
2024/04/06 00:12:04;;;;;;;3.45;1.17;;;14.50;53.40;;;10.22;87.23;95586.81;4964168;28;20065;-51
2024/04/06 00:14:29;;;;;;;2.47;0.95;;;14.40;53.40;;;10.16;87.63;95593.97;4968270;28;20088;-52
2024/04/06 00:16:55;;;;;;;2.17;1.30;;;14.40;54.00;;;10.14;87.62;95593.41;4960780;28;20027;-52
2024/04/06 00:19:21;;;;;;;5.38;2.00;;;14.40;53.40;;;10.05;88.92;95589.66;4966173;28;20065;-50
2024/04/06 00:21:47;;;;;;;3.83;1.23;;;14.30;53.40;;;10.08;88.14;95596.31;4959832;28;20033;-58
2024/04/06 00:24:13;;;;;;;1.13;0.98;;;14.30;53.50;;;10.05;87.22;95594.97;4962430;28;20499;-56
2024/04/06 00:26:39;;;;;;;2.22;1.20;;;14.30;53.50;;;10.05;88.22;95597.66;4986147;28;20018;-56
2024/04/06 00:29:05;;;;;;;1.80;1.00;;;14.20;53.50;;;9.99;88.54;95597.88;4965755;28;20030;-54
2024/04/06 00:31:31;;;;;;;2.83;1.10;;;14.20;53.70;;;9.98;88.06;95604.28;4965593;28;20031;-57
2024/04/06 00:34:01;;;;;;;2.83;1.13;;;14.20;53.70;;;10.01;87.71;95596.56;4966303;28;20034;-57
2024/04/06 00:36:31;;;;;;;2.13;1.00;;;14.20;53.80;;;10.17;86.81;95605.41;4963344;28;20644;-57
2024/04/06 00:38:59;;;;;;;1.38;0.95;;;14.20;53.90;;;10.15;85.98;95610.19;4961676;28;20113;-58
2024/04/06 00:41:25;;;;;;;2.28;1.23;;;14.20;53.90;;;10.14;86.60;95606.72;4968069;28;20034;-56
2024/04/06 00:43:51;;;;;;;1.67;0.90;;;14.20;53.80;;;10.19;86.07;95603.31;4970454;28;20037;-55
2024/04/06 00:46:17;;;;;;;2.58;1.30;;;14.20;53.90;;;10.12;85.77;95597.41;4963468;28;20377;-58
2024/04/06 00:48:46;;;;;;;2.13;1.10;;;14.20;53.80;;;10.04;86.65;95596.06;4969048;28;20532;-58
2024/04/06 00:51:12;;;;;;;2.03;0.90;;;14.20;53.80;;;9.97;87.59;95598.16;4976537;28;20033;-53
2024/04/06 00:53:40;;;;;;;1.50;1.17;;;14.10;53.80;;;9.85;87.72;95601.03;4970139;28;20117;-54
2024/04/06 00:56:07;;;;;;;1.48;1.38;;;14.10;53.80;;;9.84;87.99;95599.44;4985526;28;20117;-57
2024/04/06 00:58:35;;;;;;;2.50;1.15;;;14.10;53.90;;;9.79;87.99;95599.41;4965848;28;20066;-56
2024/04/06 01:01:01;;;;;;;4.30;1.40;;;14.00;53.90;;;9.84;87.47;95598.63;4966747;28;20515;-53
2024/04/06 01:03:27;;;;;;;1.65;1.02;;;14.00;54.00;;;9.84;87.97;95591.47;4964768;28;20030;-51
2024/04/06 01:05:53;;;;;;;1.77;1.10;;;14.00;54.10;;;9.75;88.84;95597.53;4960075;28;20033;-50
2024/04/06 01:08:19;;;;;;;2.70;1.13;;;14.00;54.10;;;9.71;88.52;95598.06;4985409;28;20030;-51
2024/04/06 01:10:45;;;;;;;1.42;1.08;;;14.00;54.10;;;9.71;89.11;95610.53;4957333;28;20027;-51
2024/04/06 01:13:11;;;;;;;1.35;1.17;;;13.90;54.20;;;9.79;89.09;95604.72;4968868;28;20033;-54
2024/04/06 01:15:37;;;;;;;2.47;1.30;;;13.90;54.30;;;9.76;90.03;95607.09;4955293;28;20040;-50
2024/04/06 01:18:03;;;;;;;3.20;1.70;;;13.90;54.40;;;9.72;90.72;95612.16;4964597;28;20029;-56
2024/04/06 01:20:35;;;;;;;1.70;1.27;;;13.90;54.40;;;9.68;91.10;95603.06;4967499;28;20030;-56
2024/04/06 01:23:03;;;;;;;3.22;1.17;;;13.90;54.60;;;9.60;91.43;95601.69;4960847;28;20044;-57
2024/04/06 01:25:29;;;;;;;2.88;1.00;;;13.90;54.60;;;9.67;91.24;95610.25;4964819;28;20025;-55
2024/04/06 01:27:54;;;;;;;1.58;1.08;;;13.80;54.70;;;9.65;91.38;95614.22;4963346;28;20033;-56
2024/04/06 01:30:20;;;;;;;1.52;1.05;;;13.80;54.70;;;9.73;90.83;95611.06;4965294;28;20440;-57
2024/04/06 01:32:52;;;;;;;2.38;1.42;;;13.80;54.90;;;9.79;90.53;95617.22;4965662;28;20364;-57
2024/04/06 01:35:19;;;;;;;2.60;1.27;;;13.80;55.00;;;9.73;90.59;95614.53;4959412;28;20041;-54
2024/04/06 01:37:45;;;;;;;3.17;1.00;;;13.80;54.80;;;9.67;90.60;95612.09;4962677;28;20416;-52
2024/04/06 01:40:12;;;;;;;1.33;1.00;;;13.80;54.90;;;9.65;90.42;95614.22;4965140;28;20031;-53
2024/04/06 01:42:38;;;;;;;2.38;1.20;;;13.80;55.00;;;9.73;89.36;95619.06;4965730;28;20444;-52
2024/04/06 01:45:06;;;;;;;1.52;1.08;;;13.80;55.00;;;9.68;90.48;95622.50;4966558;28;20034;-55
2024/04/06 01:47:32;;;;;;;2.63;1.20;;;13.80;55.00;;;9.63;91.03;95619.00;4965127;28;20041;-52
2024/04/06 01:50:06;;;;;;;3.25;1.10;;;13.80;55.60;;;9.57;90.55;95622.69;4956952;28;20109;-50
2024/04/06 01:52:32;;;;;;;3.55;1.30;;;13.80;55.10;;;9.52;90.83;95620.78;4983951;28;20030;-53
2024/04/06 01:55:05;;;;;;;1.48;1.15;;;13.70;54.90;;;9.56;90.45;95626.38;4966155;28;20026;-52
2024/04/06 01:57:31;;;;;;;2.97;1.30;;;13.70;55.10;;;9.57;90.15;95626.16;4973681;28;20085;-51
2024/04/06 01:59:58;;;;;;;3.08;1.15;;;13.70;55.00;;;9.54;89.72;95624.00;4965873;28;20468;-50
2024/04/06 02:02:24;;;;;;;1.40;0.93;;;13.70;55.10;;;9.59;88.90;95628.53;4965095;28;20057;-54
2024/04/06 02:04:50;;;;;;;2.42;1.30;;;13.70;55.10;;;9.57;89.12;95623.50;4961958;28;20023;-56
2024/04/06 02:07:17;;;;;;;3.20;1.30;;;13.70;55.10;;;9.48;89.85;95625.81;4964085;28;20117;-56
2024/04/06 02:09:50;;;;;;;1.60;1.10;;;13.70;55.10;;;9.45;89.66;95625.53;4958253;28;20034;-56
2024/04/06 02:12:16;;;;;;;2.60;1.02;;;13.60;55.20;;;9.41;89.10;95619.94;4983729;28;20034;-50
2024/04/06 02:14:42;;;;;;;3.90;1.33;;;13.60;55.10;;;9.47;88.91;95621.56;4965654;28;20056;-54
2024/04/06 02:17:08;;;;;;;3.78;1.33;;;13.60;55.10;;;9.61;88.05;95618.44;4984788;28;20034;-55
2024/04/06 02:19:34;;;;;;;1.70;1.10;;;13.60;55.20;;;9.66;86.80;95616.63;4963924;28;20034;-57
2024/04/06 02:22:00;;;;;;;3.30;1.20;;;13.70;55.20;;;9.71;86.42;95623.81;4961755;28;20113;-50
2024/04/06 02:24:26;;;;;;;2.95;1.20;;;13.70;55.20;;;9.77;85.04;95624.66;4959422;28;20038;-52
2024/04/06 02:26:52;;;;;;;0.95;0.85;;;13.70;55.10;;;9.77;85.21;95619.34;4961657;28;20429;-50
2024/04/06 02:29:19;;;;;;;2.00;1.33;;;13.80;55.10;;;9.71;85.48;95619.34;4967084;28;20378;-54
2024/04/06 02:31:45;;;;;;;1.98;1.30;;;13.80;55.00;;;9.64;85.84;95631.25;4961451;28;20022;-52
2024/04/06 02:34:10;;;;;;;1.20;1.10;;;13.80;54.80;;;9.58;86.04;95629.59;4966795;28;20018;-52
2024/04/06 02:36:38;;;;;;;3.03;1.33;;;13.70;54.70;;;9.49;86.19;95629.28;4956044;28;20023;-52
2024/04/06 02:39:09;;;;;;;1.65;1.30;;;13.70;54.70;;;9.37;87.18;95634.81;4964131;28;20038;-50
2024/04/06 02:41:35;;;;;;;3.00;1.40;;;13.60;54.60;;;9.31;88.05;95624.34;4959415;28;20070;-51
2024/04/06 02:44:02;;;;;;;3.78;1.10;;;13.60;54.70;;;9.24;88.54;95630.72;4969314;28;20034;-50
2024/04/06 02:46:28;;;;;;;4.68;1.27;;;13.60;54.70;;;9.22;89.85;95635.47;4962977;28;20050;-51
2024/04/06 02:48:54;;;;;;;3.63;1.27;;;13.50;54.80;;;9.20;89.80;95634.13;4974164;28;20080;-51
2024/04/06 02:51:20;;;;;;;2.05;1.10;;;13.50;54.90;;;9.13;90.19;95630.91;4964623;28;20022;-52
2024/04/06 02:53:46;;;;;;;2.88;1.50;;;13.40;54.90;;;9.06;90.81;95632.94;4961482;28;20026;-54
2024/04/06 02:56:13;;;;;;;2.78;1.50;;;13.40;55.00;;;9.06;91.23;95635.59;4964240;28;20033;-52
2024/04/06 02:58:39;;;;;;;1.88;1.13;;;13.30;55.10;;;8.97;91.28;95625.44;4960145;28;20052;-51
2024/04/06 03:01:05;;;;;;;1.73;1.13;;;13.30;55.20;;;9.03;90.39;95620.97;4964328;28;20026;-49
2024/04/06 03:03:30;;;;;;;2.03;1.15;;;13.30;55.30;;;9.12;89.83;95614.16;4966668;28;20340;-53
2024/04/06 03:05:56;;;;;;;3.42;1.33;;;13.30;55.40;;;9.11;89.50;95615.19;4957796;28;20035;-55
2024/04/06 03:08:22;;;;;;;3.60;1.13;;;13.30;55.40;;;9.03;89.26;95618.31;4963977;28;20131;-51
2024/04/06 03:10:48;;;;;;;2.90;1.00;;;13.20;55.30;;;9.01;89.44;95615.91;4954724;28;20297;-53
2024/04/06 03:13:14;;;;;;;1.40;1.27;;;13.20;55.30;;;9.05;88.72;95618.84;4963787;28;20037;-53
2024/04/06 03:15:40;;;;;;;1.58;0.80;;;13.20;55.30;;;9.09;88.85;95611.19;4963264;28;20433;-51
2024/04/06 03:18:06;;;;;;;3.55;1.10;;;13.20;55.40;;;9.07;88.37;95611.44;4964633;28;20033;-52
2024/04/06 03:20:32;;;;;;;2.38;0.98;;;13.20;55.40;;;9.00;89.16;95602.91;4964150;28;20030;-54
2024/04/06 03:23:04;;;;;;;2.00;0.90;;;13.20;55.40;;;9.00;88.49;95611.66;4962531;28;20458;-50
2024/04/06 03:25:33;;;;;;;5.70;1.00;;;13.20;55.60;;;9.03;88.11;95607.69;4964185;28;20378;-52
2024/04/06 03:27:59;;;;;;;3.97;0.90;;;13.20;55.40;;;9.27;85.99;95613.44;4962913;28;20575;-51
2024/04/06 03:30:26;;;;;;;1.55;0.82;;;13.20;55.50;;;9.52;83.63;95625.31;4960321;28;20042;-53
2024/04/06 03:32:53;;;;;;;1.67;1.00;;;13.30;55.50;;;9.68;81.53;95617.19;4962626;28;20054;-52
2024/04/06 03:35:20;;;;;;;1.52;1.00;;;13.40;55.40;;;9.78;83.08;95621.75;4957667;28;20034;-52
2024/04/06 03:37:48;;;;;;;2.10;1.38;;;13.50;55.40;;;9.73;83.49;95616.41;4961349;28;20448;-56
2024/04/06 03:40:17;;;;;;;1.67;1.00;;;13.60;55.20;;;9.67;83.37;95622.75;4964069;28;20460;-56
2024/04/06 03:42:57;;;;;;;1.40;0.90;;;13.70;55.00;;;9.54;84.95;95623.22;4964976;28;20041;-50
2024/04/06 03:45:25;;;;;;;1.35;1.00;;;13.70;54.90;;;9.41;85.46;95614.63;4964022;28;20026;-49
2024/04/06 03:47:51;;;;;;;2.58;1.10;;;13.60;54.60;;;9.27;87.06;95621.41;4959266;28;20025;-54
2024/04/06 03:50:20;;;;;;;1.33;0.85;;;13.60;54.70;;;9.17;86.75;95624.00;4961646;28;20053;-53
2024/04/06 03:52:48;;;;;;;2.42;0.90;;;13.50;54.60;;;9.02;88.38;95624.69;4958876;28;20033;-54
2024/04/06 03:55:14;;;;;;;2.42;0.90;;;13.50;54.70;;;8.92;88.74;95620.09;4962951;28;20037;-50
2024/04/06 03:57:40;;;;;;;2.40;1.10;;;13.40;54.70;;;8.71;91.13;95610.31;4957442;28;20019;-55
2024/04/06 04:00:13;;;;;;;1.30;0.70;;;13.30;54.70;;;8.62;91.07;95610.00;4965575;28;20068;-52
2024/04/06 04:02:39;;;;;;;;;;;13.20;54.80;;;8.56;91.35;95613.66;4971643;28;20030;-50
2024/04/06 04:05:06;;;;;;;2.10;0.90;;;13.10;54.60;;;8.56;91.31;95621.63;4960086;28;19992;-50
2024/04/06 04:07:32;;;;;;;3.63;1.00;;;13.00;54.80;;;8.48;91.74;95622.84;4962195;28;20030;-52
2024/04/06 04:10:01;;;;;;;4.32;1.13;;;12.90;54.90;;;8.52;91.35;95626.63;4957143;28;20041;-52
2024/04/06 04:12:33;;;;;;;2.75;1.00;;;12.90;55.10;;;8.43;91.64;95616.69;4961767;28;20049;-52
2024/04/06 04:15:02;;;;;;;2.77;0.90;;;12.80;55.30;;;8.29;91.74;95629.53;4963039;28;20030;-51
2024/04/06 04:17:28;;;;;;;2.55;1.10;;;12.70;55.20;;;8.13;93.98;95633.84;4961940;28;20050;-52
2024/04/06 04:19:54;;;;;;;1.98;1.20;;;12.60;55.30;;;8.05;94.40;95635.09;4988585;28;20346;-51
2024/04/06 04:22:20;;;;;;;1.90;1.10;;;12.60;55.40;;;8.01;94.54;95635.81;4963653;28;20389;-53
2024/04/06 04:24:46;;;;;;;2.88;1.38;;;12.50;55.50;;;7.86;96.12;95641.72;4962478;28;20128;-52
2024/04/06 04:27:12;;;;;;;3.50;1.40;;;12.40;55.70;;;7.81;96.58;95645.13;4960966;28;20026;-51
2024/04/06 04:29:38;;;;;;;2.83;1.38;;;12.30;55.80;;;7.75;97.19;95648.75;4964302;28;20034;-51
2024/04/06 04:32:04;;;;;;;2.25;1.42;;;12.20;55.90;;;7.65;97.51;95652.09;4961096;28;20026;-51
2024/04/06 04:34:31;;;;;;;2.60;1.33;;;12.10;56.00;;;7.62;97.36;95649.91;4963331;28;20125;-50
2024/04/06 04:36:57;;;;;;;1.95;1.40;;;12.10;56.20;;;7.54;97.66;95652.16;4958206;28;20026;-51
2024/04/06 04:39:23;;;;;;;2.83;1.25;;;12.00;56.20;;;7.48;98.14;95655.78;4966067;28;20389;-52
2024/04/06 04:41:52;;;;;;;1.35;1.10;;;12.00;56.60;;;7.52;98.89;95656.91;4966331;28;20033;-52
2024/04/06 04:44:18;;;;;;;3.83;1.23;;;11.90;56.70;;;7.60;98.69;95659.16;4970078;28;20061;-50
2024/04/06 04:46:44;;;;;;;2.88;1.30;;;11.90;56.80;;;7.65;98.01;95669.84;4958290;28;20050;-50
2024/04/06 04:49:10;;;;;;;2.45;1.00;;;11.90;56.90;;;7.62;97.91;95665.03;4969007;28;20662;-52
2024/04/06 04:51:36;;;;;;;5.43;2.85;;;11.90;56.90;;;7.51;98.46;95661.41;4968232;28;20622;-55
2024/04/06 04:54:03;;;;;;;5.10;1.40;;;11.90;57.00;;;7.50;99.68;95667.75;4973188;28;20121;-58
2024/04/06 04:56:29;;;;;;;2.25;1.33;;;11.80;57.00;;;7.50;99.72;95666.97;4971331;28;20465;-54
2024/04/06 04:58:54;;;;;;;2.03;1.38;;;11.90;57.10;;;7.49;98.84;95668.81;4972738;28;20050;-54
2024/04/06 05:01:21;;;;;;;4.35;1.30;;;11.80;57.10;;;7.44;99.63;95667.94;4966047;28;20033;-54
2024/04/06 05:03:47;;;;;;;3.72;1.52;;;11.80;57.20;;;7.42;99.76;95666.31;4992364;28;20432;-57
2024/04/06 05:06:13;;;;;;;2.50;1.67;;;11.80;57.20;;;7.40;99.70;95665.78;4973477;28;20117;-56
2024/04/06 05:08:39;;;;;;;5.25;1.58;;;11.80;57.20;;;7.33;100.00;95669.59;4967437;28;20034;-54
2024/04/06 05:11:05;;;;;;;2.25;1.40;;;11.80;57.40;;;7.44;100.00;95671.38;4972956;28;20525;-52
2024/04/06 05:13:31;;;;;;;1.88;1.33;;;11.80;57.50;;;7.49;99.82;95673.28;4968893;28;20022;-53
2024/04/06 05:16:00;;;;;;;4.35;1.27;;;11.80;57.50;;;7.47;99.62;95678.06;4972768;28;20511;-55
2024/04/06 05:18:28;;;;;;;1.95;1.10;;;11.80;57.50;;;7.46;99.59;95684.38;4965103;28;20512;-55
2024/04/06 05:21:00;;;;;;;2.17;1.25;;;11.80;57.50;;;7.46;100.00;95685.22;4967490;28;20042;-57
2024/04/06 05:23:27;;;;;;;3.00;1.30;;;11.80;57.60;;;7.54;100.00;95686.63;4973157;28;20030;-52
2024/04/06 05:25:55;;;;;;;3.80;1.25;;;11.90;57.60;;;7.59;99.86;95687.53;4965725;28;20057;-55
2024/04/06 05:28:27;;;;;;;2.63;1.15;;;11.90;57.70;;;7.65;99.05;95689.19;4972803;28;20505;-53
2024/04/06 05:30:53;;;;;;;2.10;1.30;;;12.00;57.60;;;7.68;99.02;95687.09;4971568;28;20121;-50
2024/04/06 05:33:23;;;;;;;3.45;1.45;;;12.00;57.50;;;7.75;98.83;95693.84;4970368;28;20033;-50
2024/04/06 05:35:51;;;;;;;2.97;1.48;;;12.10;57.60;;;7.83;98.53;95696.09;4970627;28;20030;-51
2024/04/06 05:38:21;;;;;;;3.60;1.30;;;12.20;57.60;;;7.88;98.83;95695.34;4968276;28;20022;-53
2024/04/06 05:40:47;;;;;;;2.60;1.75;;;12.30;57.60;;;7.94;98.21;95690.91;4966787;28;20019;-53
2024/04/06 05:43:14;;;;;;;2.90;1.40;;;12.40;57.50;;;8.05;98.40;95688.16;4970621;28;20037;-50
2024/04/06 05:45:42;;;;;;;3.13;1.08;;;12.50;57.50;;;8.16;97.93;95693.59;4971563;28;20054;-49
2024/04/06 05:48:09;;;;;;;3.97;1.20;;;12.70;57.50;;;8.28;97.94;95697.72;4965686;28;20030;-52
2024/04/06 05:50:44;;;;;;;1.60;1.00;;;12.80;57.40;;;8.45;96.87;95696.88;4967299;28;20038;-50
2024/04/06 05:53:11;;;;;;;3.75;1.40;;;13.00;57.40;;;8.78;96.06;95704.69;4971077;28;20385;-52
2024/04/06 05:55:36;;;;;;;2.53;1.40;;;13.30;57.30;;;9.11;94.43;95694.91;4966092;28;20026;-52
2024/04/06 05:58:03;;;;;;;6.38;1.40;;;13.60;57.10;;;9.49;93.54;95701.91;4971434;28;20034;-49
2024/04/06 06:00:29;;;;;;;2.05;1.20;;;14.00;56.90;;;9.89;89.57;95703.22;4969262;28;20049;-53
2024/04/06 06:02:56;;;;;;;1.92;1.13;;;14.40;56.70;;;10.28;86.75;95702.94;4970200;28;20293;-50
2024/04/06 06:05:23;;;;;;;3.63;1.45;;;14.80;56.30;;;10.72;85.09;95709.75;4965734;28;20026;-52
2024/04/06 06:07:49;;;;;;;2.95;1.10;;;15.30;55.90;;;11.20;82.54;95713.84;4970522;28;20428;-51
2024/04/06 06:10:16;;;;;;;3.15;1.10;;;15.80;55.40;;;11.68;79.89;95714.41;4965494;28;20057;-49
2024/04/06 06:12:42;;;;;;;4.07;1.30;;;16.30;54.80;;;12.11;77.18;95709.56;4966701;28;20225;-53
2024/04/06 06:15:08;;;;;;;2.58;1.10;;;16.80;54.20;;;12.45;72.81;95707.06;4971654;28;20038;-55
2024/04/06 06:17:34;;;;;;;5.50;1.63;;;17.30;53.50;;;12.90;73.51;95704.44;4966983;28;20492;-53
2024/04/06 06:20:00;;;;;;;4.60;1.98;;;17.80;52.90;;;13.29;70.82;95709.88;4970712;28;20034;-54
2024/04/06 06:22:29;;;;;;;4.88;1.58;;;18.30;52.30;;;13.69;68.78;95707.13;4965923;28;20088;-54
2024/04/06 06:24:57;;;;;;;1.35;1.20;;;18.70;51.60;;;14.08;65.81;95709.75;4968820;28;20037;-56
2024/04/06 06:27:23;;;;;;;2.78;1.40;;;19.10;50.70;;;14.37;64.66;95706.22;4980077;28;20483;-54
2024/04/06 06:29:51;;;;;;;6.75;1.45;;;19.60;50.00;;;14.76;63.71;95706.03;4965306;28;20034;-54
2024/04/06 06:32:18;;;;;;;4.68;1.50;;;19.90;49.20;;;15.11;62.97;95710.16;4967900;28;20022;-51
2024/04/06 06:34:44;;;;;;;3.45;1.10;;;20.30;48.70;;;15.42;58.09;95717.75;4965417;28;20029;-55
2024/04/06 06:37:10;;;;;;;6.90;1.33;;;20.70;47.80;;;15.71;57.72;95715.69;4968570;28;20029;-52
2024/04/06 06:39:36;;;;;;;2.25;1.10;;;21.10;47.20;;;16.08;54.84;95722.06;4966079;28;20045;-50
2024/04/06 06:42:03;;;;;;;2.97;1.10;;;21.50;46.40;;;16.35;52.67;95715.13;4966662;28;20033;-51
2024/04/06 06:44:29;;;;;;;1.75;1.00;;;21.70;45.50;;;16.66;51.52;95715.31;4964961;28;20034;-52
2024/04/06 06:46:55;;;;;;;3.78;1.10;;;22.10;44.70;;;16.95;50.58;95712.31;4962987;28;20097;-49
2024/04/06 06:49:21;;;;;;;1.95;0.90;;;22.40;44.00;;;17.27;49.78;95716.75;4969690;28;20037;-49
2024/04/06 06:51:47;;;;;;;1.30;1.20;;;22.80;43.30;;;17.58;49.73;95711.47;4965122;28;20040;-52
2024/04/06 06:54:13;;;;;;;1.40;1.10;;;23.10;42.70;;;17.69;48.70;95708.53;4965083;28;20026;-50
2024/04/06 06:56:39;;;;;;;1.98;1.05;;;23.40;42.10;;;17.60;48.60;95702.28;4966652;28;20049;-50
2024/04/06 06:59:05;;;;;;;2.75;1.23;;;23.60;41.40;;;17.55;48.12;95716.69;4963456;28;20042;-49
2024/04/06 07:01:31;;;;;;;1.67;1.10;;;23.70;40.70;;;17.62;47.57;95711.66;4963319;28;20095;-52
2024/04/06 07:03:57;;;;;;;3.05;1.17;;;23.70;40.20;;;17.75;47.16;95715.38;4967053;28;20069;-56
2024/04/06 07:06:23;;;;;;;1.08;0.90;;;23.70;39.70;;;17.67;46.83;95714.19;4966797;28;20032;-50
2024/04/06 07:08:50;;;;;;;1.33;0.98;;;23.80;39.50;;;17.47;46.95;95717.41;4960074;28;20271;-50
2024/04/06 07:11:16;;;;;;;1.98;1.02;;;23.80;39.00;;;17.56;45.97;95715.56;4966995;28;20388;-50
2024/04/06 07:13:42;;;;;;;1.45;1.10;;;23.80;38.50;;;17.66;46.90;95714.53;4969453;28;20053;-50
2024/04/06 07:16:13;;;;;;;2.67;1.00;;;23.80;38.20;;;17.88;46.18;95719.13;4965207;28;20087;-50
2024/04/06 07:18:40;;;;;;;1.30;1.00;;;23.80;37.90;;;17.99;46.13;95707.81;4969478;28;20030;-50
2024/04/06 07:21:15;;;;;;;1.20;1.10;;;24.00;37.80;;;18.21;45.87;95712.38;4963957;28;20109;-49
2024/04/06 07:23:41;;;;;;;1.88;1.20;;;24.10;37.40;;;18.31;45.90;95708.59;4968633;28;20026;-51
2024/04/06 07:26:08;;;;;;;1.42;1.17;;;24.30;37.40;;;18.35;45.91;95700.69;4968405;28;20029;-49
2024/04/06 07:28:36;;;;;;;2.95;1.20;;;24.40;37.10;;;18.55;46.57;95702.84;4970608;28;20029;-49
2024/04/06 07:31:06;;;;;;;1.70;1.40;;;24.50;37.00;;;18.74;45.72;95708.00;4969752;28;20037;-48
2024/04/06 07:33:33;;;;;;;1.63;1.25;;;24.70;36.80;;;18.83;45.66;95708.78;4964543;28;20023;-49
2024/04/06 07:35:59;;;;;;;1.58;1.10;;;24.90;36.50;;;19.06;44.47;95706.78;4969431;28;20018;-49
2024/04/06 07:38:26;;;;;;;2.20;1.10;;;25.20;36.10;;;19.29;44.37;95702.03;4981833;28;20026;-52
2024/04/06 07:41:03;;;;;;;1.40;1.30;;;25.40;35.70;;;19.45;43.39;95715.06;4969884;28;20532;-49
2024/04/06 07:43:30;;;;;;;1.50;1.17;;;25.60;35.30;;;19.62;43.97;95717.78;4970467;28;20057;-50
2024/04/06 07:45:56;;;;;;;2.22;1.30;;;25.80;35.20;;;19.77;42.43;95711.91;4966993;28;20038;-50
2024/04/06 07:48:23;;;;;;;2.20;1.15;;;26.00;34.80;;;19.85;42.25;95718.44;4959869;28;20437;-49
2024/04/06 07:50:50;;;;;;;2.30;1.10;;;26.10;34.30;;;20.04;41.52;95713.44;4961909;28;20026;-50
2024/04/06 07:53:17;;;;;;;2.95;1.30;;;26.30;34.10;;;20.29;41.73;95711.78;4958517;28;20035;-51
2024/04/06 07:55:44;;;;;;;1.30;1.20;;;26.40;33.80;;;20.44;41.22;95710.47;4962523;28;20035;-52
2024/04/06 07:58:10;;;;;;;3.53;1.33;;;26.40;33.70;;;20.67;41.05;95713.75;4959215;28;20030;-58
2024/04/06 08:00:37;;;;;;;3.10;1.48;;;26.50;33.60;;;20.75;42.44;95709.44;4965511;28;20472;-50
2024/04/06 08:03:05;;;;;;;1.73;1.30;;;26.70;33.70;;;20.95;41.75;95713.28;4960394;28;20030;-53
2024/04/06 08:05:31;;;;;;;1.50;1.40;;;26.90;33.60;;;21.03;41.23;95709.75;4961248;28;20142;-51
2024/04/06 08:07:57;;;;;;;2.28;1.20;;;27.00;33.40;;;21.17;40.52;95712.19;4966450;28;20068;-52
2024/04/06 08:10:23;;;;;;;2.58;1.38;;;27.10;33.10;;;21.18;40.71;95716.47;4966298;28;20062;-52
2024/04/06 08:12:54;;;;;;;1.75;1.30;;;27.30;32.80;;;21.40;41.17;95710.81;4968737;28;20168;-55
2024/04/06 08:15:20;;;;;;;3.17;1.30;;;27.50;32.80;;;21.64;41.22;95709.31;4963954;28;20113;-53
2024/04/06 08:17:48;;;;;;;3.00;1.60;;;27.70;32.70;;;21.80;40.44;95714.91;4967551;28;20022;-52
2024/04/06 08:20:16;;;;;;;2.88;1.30;;;28.00;32.40;;;22.18;40.38;95712.81;4965386;28;20477;-53
2024/04/06 08:22:43;;;;;;;1.55;1.20;;;28.40;32.30;;;22.62;38.22;95710.38;4966109;28;20022;-52
2024/04/06 08:25:13;;;;;;;3.72;1.42;;;28.80;31.90;;;23.00;37.71;95708.47;4964344;28;20026;-50
2024/04/06 08:27:39;;;;;;;1.75;1.50;;;29.30;31.60;;;23.24;37.35;95713.88;4964864;28;20018;-56
2024/04/06 08:30:12;;;;;;;1.40;1.30;;;29.60;31.10;;;23.48;36.53;95712.25;4970105;28;20034;-54
2024/04/06 08:32:40;;;;;;;1.88;1.25;;;29.80;30.60;;;23.76;36.01;95721.25;4971220;28;20018;-56
2024/04/06 08:35:14;;;;;;;4.40;1.70;;;30.00;30.20;;;23.90;35.63;95725.50;4965829;28;20388;-50
2024/04/06 08:37:43;;;;;;;1.90;1.48;;;30.20;29.90;;;24.26;35.49;95712.88;4965083;28;20049;-50
2024/04/06 08:40:10;;;;;;;5.65;1.60;;;30.50;29.70;;;24.46;35.13;95709.91;4963151;28;20440;-51
2024/04/06 08:42:42;;;;;;;2.83;1.77;;;30.70;29.60;;;24.40;35.99;95714.00;4967250;28;20225;-49
2024/04/06 08:45:10;;;;;;;3.42;1.65;;;30.70;29.30;;;24.42;35.78;95724.59;4964285;28;20177;-50
2024/04/06 08:47:38;;;;;;;2.38;1.85;;;30.70;29.40;;;24.22;35.19;95721.75;4966037;28;20026;-52
2024/04/06 08:50:10;;;;;;;2.47;2.20;;;30.70;29.10;;;24.45;35.76;95711.06;4962895;28;20447;-54
2024/04/06 08:52:38;;;;;;;2.22;2.00;;;30.80;29.00;;;24.68;35.84;95710.47;4962791;28;20117;-55
2024/04/06 08:55:08;;;;;;;2.95;2.00;;;30.90;29.00;;;24.52;34.71;95715.13;4971105;28;20038;-55
2024/04/06 08:57:38;;;;;;;2.22;1.90;;;31.20;28.60;;;24.58;34.84;95721.88;4959000;28;20520;-51
2024/04/06 09:00:11;;;;;;;1.50;1.40;;;31.20;28.40;;;24.83;34.28;95723.28;4966978;28;20525;-50
2024/04/06 09:02:38;;;;;;;4.57;2.00;;;31.30;28.20;;;24.87;34.32;95723.34;4963233;28;20461;-52
2024/04/06 09:05:06;;;;;;;4.53;1.95;;;31.50;28.20;;;25.23;34.32;95721.47;4963309;28;20040;-53
2024/04/06 09:07:32;;;;;;;2.38;1.52;;;31.80;28.10;;;25.36;33.88;95718.28;4965378;28;20033;-51
2024/04/06 09:09:59;;;;;;;3.38;1.80;;;32.00;27.90;;;25.44;32.92;95719.22;4960365;28;20065;-52
2024/04/06 09:12:26;;;;;;;2.85;1.88;;;32.20;27.60;;;25.51;33.68;95710.41;4965292;28;20030;-54
2024/04/06 09:14:52;;;;;;;4.00;1.65;;;32.30;27.30;;;25.59;32.33;95709.41;4959535;28;20037;-53
2024/04/06 09:17:21;;;;;;;2.40;1.73;;;32.40;27.10;;;25.79;32.67;95710.19;4966349;28;20164;-53
2024/04/06 09:19:47;;;;;;;2.13;1.80;;;32.50;26.90;;;26.01;32.68;95705.97;4964047;28;20034;-53
2024/04/06 09:22:13;;;;;;;4.93;2.00;;;32.70;27.00;;;26.14;32.16;95707.41;4962497;28;20527;-51
2024/04/06 09:24:40;;;;;;;4.13;1.70;;;32.90;26.90;;;26.36;32.59;95700.41;4961976;28;20038;-50
2024/04/06 09:27:09;;;;;;;2.60;2.10;;;33.20;26.80;;;26.66;31.99;95697.03;4963408;28;20588;-53
2024/04/06 09:29:37;;;;;;;2.92;2.08;;;33.50;26.60;;;26.90;32.00;95695.84;4969900;28;20049;-54
2024/04/06 09:32:10;;;;;;;2.40;1.83;;;33.70;26.40;;;26.76;31.49;95702.69;4968337;28;20034;-53
2024/04/06 09:34:51;;;;;;;2.25;1.70;;;33.90;26.00;;;27.28;31.30;95702.28;4964065;28;20026;-53
2024/04/06 09:37:37;;;;;;;2.90;1.87;;;34.10;26.10;;;27.31;30.75;95698.81;4966636;28;20071;-51
2024/04/06 09:40:05;;;;;;;1.90;1.80;;;34.40;25.80;;;27.14;30.88;95702.84;4965062;28;20281;-49
2024/04/06 09:42:32;;;;;;;2.78;2.08;;;34.50;25.70;;;27.10;31.33;95699.25;4985807;28;20537;-49
2024/04/06 09:45:01;;;;;;;2.55;1.83;;;34.70;25.50;;;27.31;31.22;95702.34;4962618;28;20042;-50
2024/04/06 09:47:28;;;;;;;7.30;2.08;;;34.90;25.40;;;27.66;30.34;95703.97;4985133;28;20049;-49
2024/04/06 09:49:57;;;;;;;3.47;2.08;;;35.10;25.30;;;27.79;30.27;95696.31;4960956;28;20455;-49
2024/04/06 09:52:25;;;;;;;4.20;2.08;;;35.20;25.10;;;27.68;30.34;95696.19;4962687;28;20034;-48
2024/04/06 09:54:53;;;;;;;2.85;1.80;;;35.30;24.90;;;27.93;30.85;95696.50;4962839;28;20030;-51
2024/04/06 09:57:22;;;;;;;2.88;2.25;;;35.30;24.90;;;27.48;31.12;95700.97;4959023;28;20489;-49
2024/04/06 09:59:58;;;;;;;3.35;1.98;;;35.30;24.70;;;27.54;30.92;95696.75;4964454;28;20042;-52
2024/04/06 10:02:24;;;;;;;4.63;2.28;;;35.20;24.90;;;27.68;30.62;95696.97;4983835;28;20477;-54
2024/04/06 10:04:56;;;;;;;4.50;2.15;;;35.10;24.80;;;27.60;31.28;95689.81;4962310;28;20097;-52
2024/04/06 10:07:33;;;;;;;4.13;2.20;;;35.00;24.90;;;27.75;30.08;95687.25;4964602;28;20354;-53
2024/04/06 10:10:07;;;;;;;2.35;1.90;;;35.00;24.80;;;27.80;30.56;95689.72;4961462;28;20041;-55
2024/04/06 10:12:51;;;;;;;3.38;2.58;;;35.10;24.70;;;27.45;30.28;95683.41;4957651;28;20046;-56
2024/04/06 10:15:21;;;;;;;4.55;2.50;;;35.10;24.70;;;27.22;30.63;95691.66;4962631;28;20037;-51
2024/04/06 10:17:54;;;;;;;4.63;2.10;;;35.00;24.50;;;27.29;30.86;95695.66;4962722;28;20039;-51
2024/04/06 10:20:26;;;;;;;3.35;2.13;;;34.80;24.60;;;27.57;30.42;95692.50;4969613;28;20033;-58
2024/04/06 10:23:01;;;;;;;;;;;34.60;24.60;;;27.46;31.03;95689.66;4962424;28;20022;-55
2024/04/06 10:25:39;;;;;;;3.33;2.10;;;34.50;25.10;;;26.93;31.03;95682.22;4968569;28;19906;-56